Time;durP1;ratioP1;P1;durP2;ratioP2;P2;SDS_P1;SDS_P2;PMS_P1;PMS_P2;Temp;Humidity;BMP_temperature;BMP_pressure;BME280_temperature;BME280_humidity;BME280_pressure;Samples;Min_cycle;Max_cycle;Signal;HPM_P1;HPM_P2
2022/05/10 00:02:00;;;;;;;16.25;12.25;;;;;;;15.96;76.77;101940.72;6428889;23;20005;-73
2022/05/10 00:04:31;;;;;;;15.45;11.05;;;;;;;15.88;78.12;101943.22;6401224;23;20499;-70
2022/05/10 00:07:03;;;;;;;14.20;11.85;;;;;;;15.80;78.76;101944.75;6428995;23;20449;-71
2022/05/10 00:09:34;;;;;;;14.50;11.10;;;;;;;15.75;78.14;101943.47;6428210;23;20059;-72
2022/05/10 00:12:06;;;;;;;14.93;10.57;;;;;;;15.68;78.58;101937.94;6426313;23;20009;-70
2022/05/10 00:14:38;;;;;;;13.35;11.38;;;;;;;15.57;81.06;101940.66;6427208;23;20083;-71
2022/05/10 00:17:25;;;;;;;15.98;12.07;;;;;;;15.69;80.36;101936.13;6427357;23;20005;-74
2022/05/10 00:19:57;;;;;;;13.00;10.75;;;;;;;15.54;79.46;101941.75;6427506;23;20080;-71
2022/05/10 00:22:28;;;;;;;15.48;12.00;;;;;;;15.48;81.44;101931.72;6401688;23;20104;-70
2022/05/10 00:24:59;;;;;;;15.15;12.00;;;;;;;15.51;79.77;101920.06;6426540;23;20084;-73
2022/05/10 00:27:31;;;;;;;15.15;11.57;;;;;;;15.44;81.27;101925.03;6427988;23;20036;-71
2022/05/10 00:30:04;;;;;;;14.32;11.30;;;;;;;15.42;81.67;101920.84;6427912;23;20005;-71
2022/05/10 00:32:37;;;;;;;;;;;;;;;16.01;75.64;101918.19;6428107;23;20448;-71
2022/05/10 00:35:17;;;;;;;15.40;12.20;;;;;;;15.45;81.34;101910.84;6428171;23;19919;-71
2022/05/10 00:37:51;;;;;;;14.52;11.32;;;;;;;15.33;81.75;101915.41;6428187;23;20459;-71
2022/05/10 00:40:25;;;;;;;16.15;12.45;;;;;;;15.25;82.54;101912.63;6426273;23;20329;-74
2022/05/10 00:43:09;;;;;;;15.48;12.77;;;;;;;15.29;83.30;101913.19;6427356;23;20438;-72
2022/05/10 00:45:48;;;;;;;16.02;12.73;;;;;;;15.28;82.54;101904.44;6427463;23;20273;-74
2022/05/10 00:48:28;;;;;;;16.80;12.52;;;;;;;15.26;83.16;101902.88;6427765;23;20016;-72
2022/05/10 00:51:08;;;;;;;16.63;13.20;;;;;;;15.14;84.25;101906.63;6427537;23;20020;-71
2022/05/10 00:53:54;;;;;;;16.88;13.35;;;;;;;15.26;82.29;101909.00;6427461;23;20384;-72
2022/05/10 00:56:51;;;;;;;14.18;12.68;;;;;;;15.30;83.88;101910.44;6427062;23;20017;-73
2022/05/10 00:59:41;;;;;;;17.08;12.82;;;;;;;15.14;86.10;101901.34;6427673;23;20389;-73
2022/05/10 01:02:27;;;;;;;17.45;14.07;;;;;;;15.18;85.40;101898.28;6427324;23;20281;-72
2022/05/10 01:05:06;;;;;;;16.73;13.65;;;;;;;15.07;85.71;101890.47;6427844;23;20660;-74
2022/05/10 01:07:49;;;;;;;18.92;13.45;;;;;;;14.97;86.37;101889.63;6400758;23;20009;-71
2022/05/10 01:10:40;;;;;;;15.60;12.80;;;;;;;15.00;87.19;101889.31;6425217;23;20005;-71
2022/05/10 01:13:22;;;;;;;19.95;14.32;;;;;;;14.90;86.92;101888.47;6427883;23;20072;-73
2022/05/10 01:16:09;;;;;;;17.17;13.20;;;;;;;14.93;85.98;101890.84;6426815;23;20004;-71
2022/05/10 01:18:42;;;;;;;15.30;13.68;;;;;;;14.76;87.01;101887.84;6427681;23;20009;-73
2022/05/10 01:21:51;;;;;;;20.30;14.55;;;;;;;14.98;86.46;101884.19;6427215;23;20001;-72
2022/05/10 01:24:50;;;;;;;16.95;13.85;;;;;;;14.87;86.80;101879.00;6426743;23;20005;-73
2022/05/10 01:27:40;;;;;;;17.98;14.55;;;;;;;14.75;87.38;101883.53;6426625;23;20009;-71
2022/05/10 01:30:22;;;;;;;17.17;14.88;;;;;;;14.81;88.75;101874.25;6427169;23;20104;-74
2022/05/10 01:36:01;;;;;;;18.20;14.80;;;;;;;14.66;88.00;101871.16;6427158;23;20021;-71
2022/05/10 01:38:56;;;;;;;19.15;14.30;;;;;;;14.63;86.71;101866.16;6427869;23;20008;-71
2022/05/10 01:41:58;;;;;;;18.52;14.75;;;;;;;14.76;87.09;101858.84;6425601;23;20337;-72
2022/05/10 01:44:41;;;;;;;20.27;16.60;;;;;;;14.70;87.71;101855.88;6426941;23;20009;-71
2022/05/10 01:47:15;;;;;;;18.10;15.88;;;;;;;14.69;89.01;101852.41;6427781;23;20009;-74
2022/05/10 01:49:54;;;;;;;19.35;14.65;;;;;;;14.69;87.87;101849.78;6426128;23;20008;-70
2022/05/10 01:52:32;;;;;;;19.83;14.98;;;;;;;14.59;88.36;101844.47;6399038;23;20092;-70
2022/05/10 01:55:09;;;;;;;21.02;15.95;;;;;;;14.70;89.36;101840.06;6397766;23;20009;-72
2022/05/10 01:57:41;;;;;;;17.80;15.75;;;;;;;14.57;90.83;101845.56;6398227;23;20014;-73
2022/05/10 02:00:19;;;;;;;19.33;16.15;;;;;;;14.51;90.51;101833.75;6397285;23;20072;-73
2022/05/10 02:02:54;;;;;;;20.58;15.35;;;;;;;14.51;90.90;101838.19;6397903;23;20016;-70
2022/05/10 02:05:34;;;;;;;20.75;16.65;;;;;;;14.66;89.79;101839.50;6370683;23;20017;-74
2022/05/10 02:08:14;;;;;;;17.88;15.05;;;;;;;14.67;90.11;101830.63;6398501;23;20009;-73
2022/05/10 02:10:50;;;;;;;20.67;16.90;;;;;;;14.60;89.96;101832.94;6394647;23;20009;-73
2022/05/10 02:13:28;;;;;;;18.00;15.88;;;;;;;14.58;91.05;101831.41;6398755;23;20460;-73
2022/05/10 02:16:04;;;;;;;21.27;16.17;;;;;;;14.51;90.84;101831.13;6398415;23;20105;-73
2022/05/10 02:18:46;;;;;;;21.92;15.30;;;;;;;14.58;90.76;101829.63;6397677;23;20005;-73
2022/05/10 02:21:24;;;;;;;18.15;15.15;;;;;;;14.49;91.45;101819.84;6398365;23;20036;-72
2022/05/10 02:24:26;;;;;;;16.88;14.48;;;;;;;14.55;91.69;101810.59;6397941;23;20357;-73
2022/05/10 02:27:15;;;;;;;17.85;15.35;;;;;;;14.63;91.68;101821.31;6396916;23;20024;-72
2022/05/10 02:30:02;;;;;;;17.42;15.30;;;;;;;14.64;91.43;101820.34;6398979;23;20013;-74
2022/05/10 02:35:28;;;;;;;20.33;16.20;;;;;;;14.43;92.57;101806.31;6397730;23;20104;-72
2022/05/10 02:37:59;;;;;;;18.58;16.38;;;;;;;14.50;93.70;101807.50;6396984;23;20112;-73
2022/05/10 02:40:31;;;;;;;19.83;16.67;;;;;;;14.51;92.17;101796.00;6370939;23;20010;-75
2022/05/10 02:43:03;;;;;;;20.67;17.05;;;;;;;14.51;93.75;101809.19;6398811;23;20084;-72
2022/05/10 02:45:35;;;;;;;19.92;16.20;;;;;;;14.51;93.13;101798.63;6397781;23;20152;-72
2022/05/10 02:48:13;;;;;;;22.23;17.67;;;;;;;14.66;92.31;101794.66;6398166;23;20002;-74
2022/05/10 02:50:45;;;;;;;19.88;16.75;;;;;;;14.57;93.30;101798.91;6409739;23;20017;-73
2022/05/10 02:53:16;;;;;;;22.65;16.52;;;;;;;14.59;92.03;101794.38;6429064;23;20009;-71
2022/05/10 02:56:07;;;;;;;19.20;15.43;;;;;;;14.69;92.59;101780.38;6427042;23;20004;-70
2022/05/10 02:58:57;;;;;;;20.02;16.05;;;;;;;14.72;91.77;101780.94;6428520;23;20028;-70
2022/05/10 03:01:34;;;;;;;20.88;15.80;;;;;;;14.70;92.03;101780.25;6428751;23;20005;-70
2022/05/10 03:04:09;;;;;;;19.38;15.57;;;;;;;14.58;92.11;101778.66;6428789;23;20009;-71
2022/05/10 03:06:42;;;;;;;18.45;15.95;;;;;;;14.62;91.74;101779.22;6402483;23;20001;-73
2022/05/10 03:09:14;;;;;;;16.45;14.68;;;;;;;14.60;91.90;101771.47;6428147;23;20036;-71
2022/05/10 03:11:45;;;;;;;19.63;15.95;;;;;;;14.60;92.13;101768.81;6425998;23;20037;-71
2022/05/10 03:14:17;;;;;;;19.85;15.70;;;;;;;14.64;91.03;101762.31;6428142;23;20011;-70
2022/05/10 03:16:48;;;;;;;19.60;15.40;;;;;;;14.63;91.02;101765.94;6428866;23;20267;-71
2022/05/10 03:19:19;;;;;;;18.88;15.52;;;;;;;14.64;90.40;101762.31;6401823;23;20012;-70
2022/05/10 03:21:51;;;;;;;20.17;15.05;;;;;;;14.55;91.10;101748.13;6402171;23;20005;-70
2022/05/10 03:24:22;;;;;;;18.58;15.32;;;;;;;14.65;91.06;101763.13;6429266;23;20005;-72
2022/05/10 03:26:54;;;;;;;21.20;15.60;;;;;;;14.65;90.12;101763.13;6426440;23;20514;-70
2022/05/10 03:29:26;;;;;;;20.83;16.27;;;;;;;14.61;92.13;101762.56;6428352;23;20012;-71
2022/05/10 03:31:57;;;;;;;17.98;15.52;;;;;;;14.63;91.60;101754.53;6427644;23;20009;-74
2022/05/10 03:37:18;;;;;;;18.25;15.77;;;;;;;14.63;91.37;101747.47;6428284;23;20012;-72
2022/05/10 03:39:50;;;;;;;18.55;15.35;;;;;;;14.64;91.05;101754.41;6426624;23;20013;-73
2022/05/10 03:42:22;;;;;;;20.20;14.07;;;;;;;14.62;91.21;101748.41;6426687;23;20001;-70
2022/05/10 03:44:53;;;;;;;20.80;15.55;;;;;;;14.64;91.22;101746.47;6427784;23;20772;-71
2022/05/10 03:47:26;;;;;;;20.90;16.02;;;;;;;14.59;91.58;101733.72;6428553;23;20008;-70
2022/05/10 03:49:58;;;;;;;19.05;15.07;;;;;;;14.73;91.71;101743.03;6428056;23;20005;-70
2022/05/10 03:52:29;;;;;;;22.42;15.18;;;;;;;14.69;90.52;101741.63;6428626;23;20322;-73
2022/05/10 03:55:00;;;;;;;23.23;15.65;;;;;;;14.72;90.49;101746.63;6426028;23;20004;-74
2022/05/10 03:57:32;;;;;;;24.00;15.65;;;;;;;14.72;90.27;101743.19;6428271;23;20012;-71
2022/05/10 04:00:07;;;;;;;23.10;16.63;;;;;;;14.73;90.39;101729.00;6428234;23;20087;-72
2022/05/10 04:02:39;;;;;;;22.10;16.30;;;;;;;14.77;90.14;101740.94;6426419;23;20001;-72
2022/05/10 04:05:13;;;;;;;23.13;16.10;;;;;;;14.78;89.64;101726.81;6426686;23;20005;-73
2022/05/10 04:07:45;;;;;;;22.45;16.15;;;;;;;14.79;88.85;101729.31;6427906;23;20503;-73
2022/05/10 04:10:18;;;;;;;19.40;16.60;;;;;;;14.83;88.81;101732.50;6425901;23;20017;-71
2022/05/10 04:12:49;;;;;;;;;;;;;;;15.30;85.81;101732.69;6427842;23;20017;-73
2022/05/10 04:15:21;;;;;;;19.80;14.57;;;;;;;14.91;87.84;101734.47;6427363;23;19935;-71
2022/05/10 04:17:52;;;;;;;22.15;15.65;;;;;;;14.94;87.61;101728.91;6427705;23;20001;-70
2022/05/10 04:20:23;;;;;;;19.30;14.93;;;;;;;14.94;87.83;101740.31;6427680;23;20176;-71
2022/05/10 04:22:55;;;;;;;20.23;15.48;;;;;;;15.06;86.81;101730.47;6428336;23;20005;-73
2022/05/10 04:25:26;;;;;;;20.98;15.98;;;;;;;15.02;86.98;101732.53;6426696;23;20012;-72
2022/05/10 04:27:57;;;;;;;20.67;16.10;;;;;;;15.05;86.50;101723.50;6428976;23;20519;-71
2022/05/10 04:30:28;;;;;;;25.13;16.55;;;;;;;15.08;85.95;101726.72;6427252;23;20127;-72
2022/05/10 04:33:00;;;;;;;20.50;15.98;;;;;;;15.15;86.04;101734.06;6428212;23;20009;-71
2022/05/10 04:35:32;;;;;;;23.23;16.05;;;;;;;15.17;85.22;101725.03;6401797;23;20008;-73
2022/05/10 04:38:04;;;;;;;20.58;16.00;;;;;;;15.14;85.04;101712.13;6427949;23;20009;-71
2022/05/10 04:43:25;;;;;;;21.25;14.65;;;;;;;15.29;85.15;101715.19;6427480;23;20017;-71
2022/05/10 04:45:57;;;;;;;22.85;16.17;;;;;;;15.37;84.11;101723.22;6427984;23;20005;-71
2022/05/10 04:48:28;;;;;;;19.20;15.05;;;;;;;15.37;84.13;101706.56;6427707;23;20088;-74
2022/05/10 04:51:01;;;;;;;20.67;15.05;;;;;;;15.45;84.00;101715.44;6426993;23;20319;-71
2022/05/10 04:53:33;;;;;;;24.48;16.33;;;;;;;15.50;83.53;101713.22;6427287;23;20071;-71
2022/05/10 04:56:05;;;;;;;22.08;16.55;;;;;;;15.56;83.32;101714.44;6425057;23;20035;-71
2022/05/10 04:58:36;;;;;;;24.13;16.00;;;;;;;15.62;82.84;101713.06;6427766;23;20036;-72
2022/05/10 05:01:09;;;;;;;20.92;14.30;;;;;;;15.70;82.17;101718.50;6428178;23;20024;-73
2022/05/10 05:03:45;;;;;;;19.75;14.85;;;;;;;15.79;82.04;101709.72;6427227;23;20452;-71
2022/05/10 05:06:17;;;;;;;19.83;13.93;;;;;;;15.84;81.72;101706.66;6427569;23;20013;-71
2022/05/10 05:08:48;;;;;;;18.55;13.90;;;;;;;15.90;81.22;101716.66;6428011;23;20024;-71
2022/05/10 05:11:20;;;;;;;20.83;14.15;;;;;;;15.93;81.56;101709.25;6425522;23;20527;-71
2022/05/10 05:13:52;;;;;;;20.00;14.48;;;;;;;16.03;81.06;101711.88;6427554;23;20388;-74
2022/05/10 05:16:24;;;;;;;17.98;14.00;;;;;;;16.08;81.00;101720.19;6428122;23;20004;-71
2022/05/10 05:18:55;;;;;;;18.40;14.07;;;;;;;16.13;80.30;101720.59;6427998;23;20621;-71
2022/05/10 05:21:26;;;;;;;18.55;13.90;;;;;;;16.14;80.19;101711.72;6427547;23;20005;-71
2022/05/10 05:23:58;;;;;;;19.40;14.27;;;;;;;16.20;80.61;101719.03;6427637;23;20009;-71
2022/05/10 05:26:29;;;;;;;18.08;13.43;;;;;;;16.23;80.60;101726.69;6424719;23;20228;-71
2022/05/10 05:29:00;;;;;;;14.88;12.75;;;;;;;16.31;80.13;101720.66;6428221;23;20436;-71
2022/05/10 05:31:32;;;;;;;15.95;12.90;;;;;;;16.31;80.56;101725.97;6427385;23;20005;-71
2022/05/10 05:34:04;;;;;;;15.03;12.73;;;;;;;16.39;80.05;101717.28;6428104;23;20009;-72
2022/05/10 05:36:35;;;;;;;15.40;13.65;;;;;;;16.41;80.13;101716.19;6427932;23;20070;-74
2022/05/10 05:39:07;;;;;;;17.48;12.98;;;;;;;16.48;79.77;101721.72;6427974;23;20009;-71
2022/05/10 05:41:38;;;;;;;17.95;11.98;;;;;;;16.55;79.58;101722.75;6425953;23;20008;-72
2022/05/10 05:44:09;;;;;;;14.32;12.80;;;;;;;16.58;79.89;101725.13;6427314;23;20040;-75
2022/05/10 05:46:41;;;;;;;16.40;12.65;;;;;;;16.63;79.14;101716.72;6399005;23;20445;-71
2022/05/10 05:49:12;;;;;;;15.30;12.73;;;;;;;16.71;78.86;101720.31;6425084;23;20009;-73
2022/05/10 05:51:43;;;;;;;15.90;12.27;;;;;;;16.79;78.31;101719.59;6424684;23;20047;-75
2022/05/10 05:54:14;;;;;;;17.55;12.18;;;;;;;16.88;79.13;101717.88;6428104;23;20340;-72
2022/05/10 05:56:46;;;;;;;14.77;12.30;;;;;;;16.96;78.24;101715.31;6425663;23;20083;-75
2022/05/10 05:59:17;;;;;;;13.63;12.13;;;;;;;17.04;78.00;101702.13;6423776;23;20009;-72
2022/05/10 06:01:48;;;;;;;15.75;11.32;;;;;;;17.13;77.65;101690.66;6427161;23;20009;-72
2022/05/10 06:04:20;;;;;;;13.75;12.20;;;;;;;17.20;76.87;101689.06;6423853;23;20337;-72
2022/05/10 06:06:51;;;;;;;12.27;10.68;;;;;;;17.25;76.88;101692.06;6426677;23;20344;-75
2022/05/10 06:09:23;;;;;;;16.17;10.55;;;;;;;17.40;75.44;101702.13;6424921;23;20380;-73
2022/05/10 06:11:54;;;;;;;12.63;10.98;;;;;;;17.46;75.80;101702.34;6419612;23;20055;-73
2022/05/10 06:14:25;;;;;;;12.30;10.75;;;;;;;17.59;75.32;101703.75;6416588;23;20016;-74
2022/05/10 06:16:57;;;;;;;12.98;10.68;;;;;;;17.66;75.38;101710.94;6397053;23;20491;-73
2022/05/10 06:19:29;;;;;;;10.70;9.57;;;;;;;17.77;74.23;101707.22;6427254;23;20166;-73
2022/05/10 06:22:00;;;;;;;14.02;10.18;;;;;;;17.89;74.48;101705.97;6426943;23;20337;-73
2022/05/10 06:24:32;;;;;;;12.80;10.27;;;;;;;17.99;74.18;101700.53;6425319;23;20005;-73
2022/05/10 06:27:05;;;;;;;12.73;9.90;;;;;;;18.11;73.79;101701.13;6423194;23;20063;-72
2022/05/10 06:29:37;;;;;;;10.13;8.77;;;;;;;18.18;73.61;101700.31;6425140;23;20033;-75
2022/05/10 06:32:08;;;;;;;10.70;8.52;;;;;;;18.27;72.44;101697.69;6427363;23;20374;-73
2022/05/10 06:34:41;;;;;;;11.85;8.55;;;;;;;18.39;72.29;101691.13;6424176;23;20047;-73
2022/05/10 06:38:16;;;;;;;12.00;8.40;;;;;;;18.51;71.77;101691.66;6401412;23;20036;-73
2022/05/10 06:40:14;;;;;;;11.48;8.25;;;;;;;18.63;71.22;101685.03;6427845;23;20009;-75
2022/05/10 06:42:46;;;;;;;8.93;7.20;;;;;;;18.69;71.16;101682.56;6428997;23;20028;-73
2022/05/10 06:45:19;;;;;;;10.32;7.55;;;;;;;18.83;69.84;101686.44;6425000;23;20004;-73
2022/05/10 06:47:50;;;;;;;13.93;7.47;;;;;;;18.93;69.53;101683.63;6428613;23;20016;-73
2022/05/10 06:50:23;;;;;;;11.38;7.90;;;;;;;19.04;69.30;101679.81;6425589;23;20024;-73
2022/05/10 06:52:57;;;;;;;;;;;;;;;19.46;68.16;101687.59;6402251;23;20005;-73
2022/05/10 06:55:31;;;;;;;11.85;6.95;;;;;;;19.22;67.83;101677.84;6427009;23;19923;-73
2022/05/10 06:58:03;;;;;;;10.55;6.88;;;;;;;19.35;68.57;101683.47;6429197;23;20032;-74
2022/05/10 07:00:38;;;;;;;12.75;7.05;;;;;;;19.45;67.12;101678.81;6424670;23;20035;-73
2022/05/10 07:03:13;;;;;;;9.70;6.45;;;;;;;19.54;67.02;101679.63;6428583;23;20051;-74
2022/05/10 07:05:45;;;;;;;12.52;7.22;;;;;;;19.61;66.32;101675.28;6423171;23;20009;-75
2022/05/10 07:08:17;;;;;;;15.07;7.30;;;;;;;19.69;65.87;101669.16;6429104;23;20394;-75
2022/05/10 07:10:48;;;;;;;11.98;6.68;;;;;;;19.87;65.16;101669.78;6424550;23;20323;-75
2022/05/10 07:13:23;;;;;;;12.55;6.95;;;;;;;19.99;64.62;101661.44;6426884;23;20036;-73
2022/05/10 07:15:54;;;;;;;10.20;7.10;;;;;;;20.05;64.04;101664.25;6427574;23;20012;-75
2022/05/10 07:18:26;;;;;;;8.70;6.53;;;;;;;20.19;64.18;101660.00;6428236;23;20005;-76
2022/05/10 07:20:57;;;;;;;9.30;5.60;;;;;;;20.28;64.04;101664.31;6427958;23;20005;-73
2022/05/10 07:23:31;;;;;;;6.63;6.00;;;;;;;20.37;63.72;101652.59;6426000;23;20012;-74
2022/05/10 07:26:02;;;;;;;9.27;6.50;;;;;;;20.65;62.72;101663.63;6425905;23;20005;-74
2022/05/10 07:28:33;;;;;;;10.73;6.00;;;;;;;20.85;62.64;101653.31;6424389;23;20028;-75
2022/05/10 07:31:05;;;;;;;9.97;6.27;;;;;;;21.00;60.71;101652.56;6427708;23;20575;-74
2022/05/10 07:33:36;;;;;;;12.53;5.93;;;;;;;21.11;61.50;101652.97;6427771;23;20425;-75
2022/05/10 07:36:28;;;;;;;11.80;6.30;;;;;;;21.19;59.96;101654.72;6426401;23;20455;-74
2022/05/10 07:39:08;;;;;;;7.28;5.70;;;;;;;21.26;60.14;101647.66;6426996;23;20012;-74
2022/05/10 07:41:39;;;;;;;8.85;5.65;;;;;;;21.25;59.38;101650.50;6425730;23;20309;-74
2022/05/10 07:44:11;;;;;;;8.70;5.87;;;;;;;21.46;58.96;101642.66;6426688;23;20005;-74
2022/05/10 07:46:43;;;;;;;8.70;5.47;;;;;;;21.54;58.60;101647.91;6427344;23;20059;-74
2022/05/10 07:49:14;;;;;;;9.37;5.47;;;;;;;21.60;57.21;101643.69;6428033;23;20440;-74
2022/05/10 07:51:46;;;;;;;8.10;5.60;;;;;;;21.71;57.64;101642.41;6427451;23;20020;-74
2022/05/10 07:54:17;;;;;;;12.20;5.60;;;;;;;21.78;56.27;101643.31;6427540;23;20013;-74
2022/05/10 07:56:49;;;;;;;12.20;6.27;;;;;;;21.75;56.02;101646.38;6425347;23;20421;-73
2022/05/10 07:59:20;;;;;;;12.97;5.80;;;;;;;21.89;55.50;101636.69;6427878;23;20032;-74
2022/05/10 08:01:51;;;;;;;9.93;4.93;;;;;;;22.01;57.13;101641.38;6428193;23;20064;-74
2022/05/10 08:04:23;;;;;;;11.10;5.33;;;;;;;22.03;55.85;101639.34;6427370;23;20008;-74
2022/05/10 08:06:54;;;;;;;12.97;5.00;;;;;;;22.17;55.31;101639.56;6427785;23;20008;-73
2022/05/10 08:09:25;;;;;;;8.40;4.57;;;;;;;22.26;55.19;101647.25;6427155;23;20083;-73
2022/05/10 08:11:57;;;;;;;9.90;5.07;;;;;;;22.23;54.40;101641.44;6423463;23;20031;-73
2022/05/10 08:14:28;;;;;;;11.40;5.30;;;;;;;22.18;53.28;101642.03;6427505;23;20084;-73
2022/05/10 08:16:59;;;;;;;8.23;5.27;;;;;;;22.24;53.40;101635.13;6428506;23;20170;-74
2022/05/10 08:19:31;;;;;;;10.23;5.07;;;;;;;22.18;53.38;101638.53;6427865;23;20084;-73
2022/05/10 08:22:02;;;;;;;10.47;4.90;;;;;;;22.20;54.48;101639.16;6428903;23;20025;-73
2022/05/10 08:24:34;;;;;;;13.77;5.03;;;;;;;22.21;53.20;101627.47;6426881;23;20337;-73
2022/05/10 08:27:05;;;;;;;10.07;5.10;;;;;;;22.22;52.12;101629.94;6427086;23;20660;-73
2022/05/10 08:29:37;;;;;;;21.07;6.27;;;;;;;22.19;51.87;101638.31;6401661;23;20035;-73
2022/05/10 08:32:09;;;;;;;25.25;5.95;;;;;;;22.23;51.81;101625.44;6426906;23;20005;-73
2022/05/10 08:34:40;;;;;;;25.00;6.17;;;;;;;22.27;51.87;101629.38;6424409;23;20016;-74
2022/05/10 08:37:11;;;;;;;14.40;4.57;;;;;;;22.27;51.65;101624.03;6400684;23;20004;-73
2022/05/10 08:39:42;;;;;;;11.77;4.70;;;;;;;22.37;52.41;101615.75;6427909;23;20080;-73
2022/05/10 08:42:28;;;;;;;15.20;5.40;;;;;;;22.50;52.15;101621.22;6426083;23;20005;-74
2022/05/10 08:45:04;;;;;;;10.63;4.40;;;;;;;22.47;52.34;101621.63;6424322;23;20336;-74
2022/05/10 08:47:37;;;;;;;12.93;4.45;;;;;;;22.52;52.34;101616.50;6425595;23;20020;-74
2022/05/10 08:50:11;;;;;;;39.08;7.82;;;;;;;22.62;51.51;101613.53;6426768;23;20420;-74
2022/05/10 08:52:47;;;;;;;60.25;10.75;;;;;;;22.61;51.47;101607.34;6425280;23;20013;-73
2022/05/10 08:55:27;;;;;;;26.40;6.47;;;;;;;22.73;50.15;101618.34;6425416;23;20519;-73
2022/05/10 08:58:07;;;;;;;23.60;5.45;;;;;;;22.83;50.45;101614.34;6425151;23;20008;-73
2022/05/10 09:00:48;;;;;;;11.18;4.57;;;;;;;22.94;50.27;101606.88;6427183;23;20011;-73
2022/05/10 09:03:42;;;;;;;9.50;4.45;;;;;;;23.20;49.57;101607.06;6426950;23;20009;-73
2022/05/10 09:06:37;;;;;;;7.38;4.22;;;;;;;23.44;49.25;101608.44;6427053;23;20424;-73
2022/05/10 09:09:30;;;;;;;8.73;4.20;;;;;;;23.54;48.81;101605.44;6426618;23;20075;-74
2022/05/10 09:12:20;;;;;;;10.93;4.57;;;;;;;23.51;47.70;101608.50;6424569;23;20005;-73
2022/05/10 09:15:06;;;;;;;6.97;4.13;;;;;;;23.78;47.42;101596.94;6426450;23;20348;-73
2022/05/10 09:17:39;;;;;;;8.32;4.45;;;;;;;23.81;47.18;101605.59;6426405;23;20353;-73
2022/05/10 09:20:12;;;;;;;7.80;4.30;;;;;;;23.91;45.76;101592.69;6425682;23;20038;-73
2022/05/10 09:23:03;;;;;;;6.70;3.88;;;;;;;24.05;46.92;101586.31;6427490;23;20008;-73
2022/05/10 09:25:39;;;;;;;7.90;4.80;;;;;;;23.95;45.88;101589.41;6423919;23;20088;-73
2022/05/10 09:28:28;;;;;;;10.88;4.70;;;;;;;24.17;46.91;101595.44;6425410;23;20988;-75
2022/05/10 09:37:36;;;;;;;8.70;4.82;;;;;;;24.39;46.00;101593.44;6426233;23;20080;-75
2022/05/10 09:40:44;;;;;;;6.43;4.40;;;;;;;24.49;46.72;101591.19;6398678;23;20008;-75
2022/05/10 09:43:23;;;;;;;7.68;4.70;;;;;;;24.40;46.30;101578.22;6422321;23;20380;-75
2022/05/10 09:46:18;;;;;;;7.70;4.20;;;;;;;24.37;47.41;101584.78;6426352;23;20755;-73
2022/05/10 09:48:50;;;;;;;9.18;4.53;;;;;;;24.40;46.29;101583.59;6425667;23;20078;-73
2022/05/10 09:51:44;;;;;;;11.00;5.00;;;;;;;24.62;44.68;101582.34;6425856;23;20437;-73
2022/05/10 09:54:22;;;;;;;10.40;4.90;;;;;;;24.70;44.91;101573.28;6422355;23;20017;-73
2022/05/10 09:56:56;;;;;;;9.05;3.97;;;;;;;24.84;44.77;101564.22;6423352;23;20012;-73
2022/05/10 09:59:47;;;;;;;7.40;4.60;;;;;;;25.20;44.44;101562.97;6423569;23;20012;-74
2022/05/10 10:02:36;;;;;;;10.63;4.75;;;;;;;25.40;45.65;101562.94;6421729;23;20441;-73
2022/05/10 10:05:23;;;;;;;7.40;4.13;;;;;;;25.44;42.37;101548.06;6399431;23;20020;-74
2022/05/10 10:07:56;;;;;;;7.63;4.45;;;;;;;25.38;41.74;101560.47;6424950;23;20071;-74
2022/05/10 10:10:31;;;;;;;7.38;4.32;;;;;;;25.59;42.13;101556.66;6424969;23;20009;-74
2022/05/10 10:13:29;;;;;;;10.07;4.78;;;;;;;25.59;40.55;101545.13;6427976;23;20001;-74
2022/05/10 10:16:00;;;;;;;11.10;3.85;;;;;;;25.73;40.26;101555.59;6427495;23;20015;-74
2022/05/10 10:19:04;;;;;;;7.40;3.63;;;;;;;26.25;40.64;101539.41;6429414;23;20726;-74
2022/05/10 10:21:43;;;;;;;;;;;;;;;26.70;39.36;101547.34;6426689;23;20043;-74
2022/05/10 10:24:24;;;;;;;7.80;3.97;;;;;;;26.62;37.68;101555.69;6428410;23;19954;-74
2022/05/10 10:27:06;;;;;;;9.43;3.92;;;;;;;26.44;37.30;101549.22;6402030;23;20005;-74
2022/05/10 10:29:44;;;;;;;13.45;4.32;;;;;;;26.15;37.24;101558.69;6428385;23;20009;-74
2022/05/10 10:32:25;;;;;;;8.27;3.75;;;;;;;26.16;36.82;101557.66;6427719;23;20220;-75
2022/05/10 10:35:09;;;;;;;8.60;4.20;;;;;;;26.28;37.10;101554.28;6428196;23;20017;-74
2022/05/10 10:37:48;;;;;;;7.13;3.58;;;;;;;26.58;37.75;101549.13;6429364;23;20333;-74
2022/05/10 10:40:35;;;;;;;9.82;4.20;;;;;;;26.76;37.15;101540.28;6427551;23;20013;-74
2022/05/10 10:43:29;;;;;;;8.70;4.30;;;;;;;26.92;37.09;101551.28;6427839;23;20005;-75
2022/05/10 10:46:17;;;;;;;18.20;5.50;;;;;;;26.83;35.88;101541.06;6428447;23;20055;-74
2022/05/10 10:48:53;;;;;;;12.30;4.65;;;;;;;26.59;36.15;101540.81;6428880;23;20405;-74
2022/05/10 10:51:29;;;;;;;7.45;4.07;;;;;;;26.68;37.33;101544.09;6413771;23;20059;-75
2022/05/10 10:54:01;;;;;;;4.93;3.88;;;;;;;26.51;36.77;101534.91;6428507;23;20016;-75
2022/05/10 10:56:51;;;;;;;;;;;;;;;27.07;36.30;101534.81;6426522;23;20574;-74
2022/05/10 10:59:34;;;;;;;5.88;3.75;;;;;;;26.64;37.83;101534.81;6428952;23;20601;-75
2022/05/10 11:02:31;;;;;;;11.68;4.78;;;;;;;26.51;37.49;101527.66;6426501;23;20145;-75
2022/05/10 11:05:20;;;;;;;13.40;4.07;;;;;;;26.50;37.16;101523.34;6428701;23;20496;-75
2022/05/10 11:08:26;;;;;;;16.77;4.93;;;;;;;26.55;37.57;101520.81;6428716;23;20348;-74
2022/05/10 11:11:15;;;;;;;9.50;4.43;;;;;;;26.29;38.08;101511.09;6425864;23;20011;-75
2022/05/10 11:14:02;;;;;;;5.30;3.40;;;;;;;26.34;37.83;101513.13;6428433;23;20028;-75
2022/05/10 11:17:07;;;;;;;12.35;4.70;;;;;;;26.50;37.41;101511.78;6426974;23;20080;-75
2022/05/10 11:20:11;;;;;;;8.55;4.18;;;;;;;26.35;37.29;101512.06;6428487;23;20333;-74
2022/05/10 11:22:58;;;;;;;6.82;4.13;;;;;;;26.16;38.49;101508.50;6426359;23;20001;-75
2022/05/10 11:25:54;;;;;;;10.57;4.57;;;;;;;26.27;38.27;101498.91;6427194;23;20039;-74
2022/05/10 11:28:40;;;;;;;10.43;4.18;;;;;;;26.37;38.23;101497.38;6426389;23;20392;-75
2022/05/10 11:31:25;;;;;;;10.32;4.22;;;;;;;26.49;38.67;101494.03;6426449;23;20072;-75
2022/05/10 11:34:14;;;;;;;7.15;4.05;;;;;;;26.56;37.21;101494.78;6420919;23;20017;-75
2022/05/10 11:36:49;;;;;;;9.73;4.60;;;;;;;26.63;37.04;101485.63;6425690;23;20012;-75
2022/05/10 11:39:32;;;;;;;9.45;4.70;;;;;;;26.89;37.25;101484.50;6424706;23;20063;-75
2022/05/10 11:42:22;;;;;;;6.60;4.00;;;;;;;26.53;36.85;101492.53;6423957;23;20055;-75
2022/05/10 11:45:15;;;;;;;11.35;4.35;;;;;;;26.86;36.58;101484.97;6426798;23;20103;-75
2022/05/10 11:48:04;;;;;;;7.75;3.75;;;;;;;26.72;35.86;101486.16;6427212;23;20059;-75
2022/05/10 11:53:57;;;;;;;8.13;4.00;;;;;;;26.84;35.11;101470.91;6425123;23;20433;-75
2022/05/10 11:56:38;;;;;;;7.70;4.20;;;;;;;26.77;35.21;101475.53;6422840;23;20072;-75
2022/05/10 11:59:14;;;;;;;7.70;3.72;;;;;;;26.90;36.01;101478.13;6427568;23;20013;-75
2022/05/10 12:01:48;;;;;;;5.45;3.58;;;;;;;26.74;35.99;101478.66;6424703;23;20393;-75
2022/05/10 12:04:28;;;;;;;9.73;3.60;;;;;;;26.81;36.10;101484.81;6428144;23;20012;-75
2022/05/10 12:07:21;;;;;;;12.38;3.95;;;;;;;26.96;35.46;101478.25;6423370;23;20633;-75
2022/05/10 12:09:55;;;;;;;7.30;3.80;;;;;;;26.98;35.35;101470.78;6424073;23;20063;-75
2022/05/10 12:12:32;;;;;;;6.63;3.67;;;;;;;27.09;35.87;101480.81;6422575;23;20005;-75
2022/05/10 12:21:20;;;;;;;8.20;3.22;;;;;;;27.10;35.63;101463.63;6426071;23;20016;-75
2022/05/10 12:24:25;;;;;;;6.72;3.35;;;;;;;27.08;35.60;101471.06;6428015;23;20170;-75
2022/05/10 12:27:19;;;;;;;7.63;3.53;;;;;;;27.08;35.33;101461.13;6424706;23;20353;-75
2022/05/10 12:29:52;;;;;;;7.60;3.47;;;;;;;26.74;35.17;101453.66;6426827;23;20040;-75
2022/05/10 12:32:38;;;;;;;12.90;4.05;;;;;;;26.65;34.88;101448.56;6399255;23;20013;-75